createdAt,value
2022-10-23T00:01:31.354Z,98.44
2022-10-23T00:04:03.633Z,99.78
2022-10-23T00:06:32.049Z,100.00
2022-10-23T00:08:58.924Z,100.00
2022-10-23T00:11:27.992Z,100.00
2022-10-23T00:13:56.612Z,100.00
2022-10-23T00:16:23.210Z,98.96
2022-10-23T00:18:49.827Z,98.83
2022-10-23T00:21:17.639Z,99.36
2022-10-23T00:23:45.215Z,99.65
2022-10-23T00:26:23.313Z,98.95
2022-10-23T00:28:52.133Z,99.18
2022-10-23T00:31:20.215Z,98.58
2022-10-23T00:33:47.143Z,98.20
2022-10-23T00:36:15.733Z,97.92
2022-10-23T00:38:43.992Z,98.23
2022-10-23T00:41:18.984Z,98.82
2022-10-23T00:44:07.676Z,99.31
2022-10-23T00:46:35.303Z,99.21
2022-10-23T00:49:03.541Z,99.96
2022-10-23T00:51:36.152Z,100.00
2022-10-23T00:56:50.722Z,100.00
2022-10-23T00:59:20.177Z,100.00
2022-10-23T01:01:47.040Z,100.00
2022-10-23T01:04:14.352Z,100.00
2022-10-23T01:06:47.207Z,100.00
2022-10-23T01:09:58.563Z,100.00
2022-10-23T01:12:46.950Z,100.00
2022-10-23T01:15:23.844Z,100.00
2022-10-23T01:17:54.696Z,100.00
2022-10-23T01:20:40.916Z,100.00
2022-10-23T01:23:30.251Z,100.00
2022-10-23T01:26:20.153Z,100.00
2022-10-23T01:28:50.277Z,100.00
2022-10-23T01:31:26.158Z,100.00
2022-10-23T01:33:57.891Z,100.00
2022-10-23T01:36:28.536Z,100.00
2022-10-23T01:39:04.946Z,100.00
2022-10-23T01:41:54.998Z,100.00
2022-10-23T01:44:49.858Z,100.00
2022-10-23T01:47:24.816Z,100.00
2022-10-23T01:50:05.477Z,100.00
2022-10-23T01:52:38.382Z,100.00
2022-10-23T01:55:08.515Z,100.00
2022-10-23T01:57:36.470Z,100.00
2022-10-23T02:00:10.080Z,100.00
2022-10-23T02:02:51.761Z,100.00
2022-10-23T02:05:29.881Z,100.00
2022-10-23T02:07:58.427Z,100.00
2022-10-23T02:10:36.672Z,100.00
2022-10-23T02:13:17.645Z,100.00
2022-10-23T02:15:56.395Z,100.00
2022-10-23T02:18:41.627Z,100.00
2022-10-23T02:21:12.439Z,100.00
2022-10-23T02:23:46.076Z,100.00
2022-10-23T02:26:35.790Z,100.00
2022-10-23T02:29:35.801Z,100.00
2022-10-23T02:32:02.471Z,100.00
2022-10-23T02:34:29.328Z,100.00
2022-10-23T02:37:08.419Z,100.00
2022-10-23T02:39:35.190Z,100.00
2022-10-23T02:42:36.710Z,99.63
2022-10-23T02:45:10.749Z,98.91
2022-10-23T02:47:40.710Z,99.36
2022-10-23T02:50:19.576Z,98.36
2022-10-23T02:52:54.937Z,99.65
2022-10-23T02:55:40.786Z,100.00
2022-10-23T02:58:24.627Z,100.00
2022-10-23T03:00:58.657Z,100.00
2022-10-23T03:03:33.176Z,100.00
2022-10-23T03:06:22.226Z,100.00
2022-10-23T03:09:04.176Z,100.00
2022-10-23T03:11:30.961Z,100.00
2022-10-23T03:14:00.774Z,100.00
2022-10-23T03:16:27.965Z,100.00
2022-10-23T03:18:55.224Z,100.00
2022-10-23T03:21:25.467Z,100.00
2022-10-23T03:23:53.436Z,100.00
2022-10-23T03:26:34.339Z,100.00
2022-10-23T03:29:01.097Z,100.00
2022-10-23T03:31:27.691Z,100.00
2022-10-23T03:33:59.796Z,100.00
2022-10-23T03:36:27.426Z,100.00
2022-10-23T03:38:54.101Z,100.00
2022-10-23T03:41:21.163Z,100.00
2022-10-23T03:43:48.651Z,100.00
2022-10-23T03:46:17.890Z,99.51
2022-10-23T03:48:44.725Z,98.38
2022-10-23T03:51:14.056Z,98.89
2022-10-23T03:54:27.480Z,99.38
2022-10-23T03:57:01.549Z,99.11
2022-10-23T03:59:28.881Z,99.27
2022-10-23T04:01:55.661Z,99.36
2022-10-23T04:04:24.421Z,99.65
2022-10-23T04:06:51.064Z,99.50
2022-10-23T04:09:19.084Z,99.97
2022-10-23T04:11:55.787Z,99.89
2022-10-23T04:14:26.436Z,99.98
2022-10-23T04:16:53.084Z,99.16
2022-10-23T04:19:20.648Z,98.43
2022-10-23T04:21:50.358Z,98.52
2022-10-23T04:24:16.956Z,98.86
2022-10-23T04:26:45.349Z,98.89
2022-10-23T04:29:14.150Z,99.11
2022-10-23T04:31:40.860Z,98.96
2022-10-23T04:34:07.600Z,98.70
2022-10-23T04:36:35.498Z,98.79
2022-10-23T04:39:07.763Z,100.00
2022-10-23T04:41:36.843Z,100.00
2022-10-23T04:44:03.528Z,99.73
2022-10-23T04:46:30.463Z,100.00
2022-10-23T04:48:57.080Z,100.00
2022-10-23T04:51:29.243Z,100.00
2022-10-23T04:54:21.929Z,99.86
2022-10-23T04:57:53.456Z,99.89
2022-10-23T05:00:23.867Z,100.00
2022-10-23T05:02:53.633Z,99.54
2022-10-23T05:05:21.326Z,99.38
2022-10-23T05:08:00.214Z,98.65
2022-10-23T05:10:55.367Z,98.64
2022-10-23T05:13:22.227Z,99.59
2022-10-23T05:15:49.886Z,99.07
2022-10-23T05:18:25.524Z,99.02
2022-10-23T05:20:57.413Z,98.58
2022-10-23T05:23:26.181Z,97.70
2022-10-23T05:26:00.337Z,96.34
2022-10-23T05:28:26.944Z,96.27
2022-10-23T05:30:54.193Z,96.65
2022-10-23T05:33:26.883Z,96.17
2022-10-23T05:35:53.747Z,96.57
2022-10-23T05:38:22.304Z,96.85
2022-10-23T05:40:51.538Z,96.48
2022-10-23T05:43:19.848Z,96.83
2022-10-23T05:45:54.075Z,97.06
2022-10-23T05:48:35.746Z,97.20
2022-10-23T05:51:10.289Z,96.67
2022-10-23T05:53:45.298Z,96.50
2022-10-23T05:56:18.997Z,97.05
2022-10-23T05:59:04.698Z,97.21
2022-10-23T06:01:50.049Z,97.36
2022-10-23T06:04:26.861Z,97.21
2022-10-23T06:07:16.591Z,96.51
2022-10-23T06:09:45.406Z,96.84
2022-10-23T06:12:13.381Z,96.57
2022-10-23T06:14:42.966Z,96.79
2022-10-23T06:17:09.749Z,96.87
2022-10-23T06:19:41.488Z,96.51
2022-10-23T06:22:08.235Z,96.63
2022-10-23T06:24:46.104Z,96.21
2022-10-23T06:27:15.617Z,95.92
2022-10-23T06:29:44.080Z,95.77
2022-10-23T06:32:11.425Z,96.21
2022-10-23T06:34:39.076Z,97.10
2022-10-23T06:37:08.087Z,96.96
2022-10-23T06:39:36.743Z,97.38
2022-10-23T06:42:12.891Z,97.30
2022-10-23T06:44:54.398Z,97.81
2022-10-23T06:47:53.543Z,97.14
2022-10-23T06:50:51.283Z,96.32
2022-10-23T06:53:24.901Z,95.25
2022-10-23T06:56:03.834Z,94.69
2022-10-23T06:58:43.302Z,94.54
2022-10-23T07:01:14.852Z,95.22
2022-10-23T07:03:42.872Z,95.39
2022-10-23T07:06:10.332Z,95.59
2022-10-23T07:08:38.202Z,95.04
2022-10-23T07:11:17.023Z,95.44
2022-10-23T07:13:46.821Z,95.78
2022-10-23T07:16:19.251Z,95.51
2022-10-23T07:18:46.777Z,95.18
2022-10-23T07:21:39.273Z,94.47
2022-10-23T07:24:21.799Z,93.65
2022-10-23T07:27:13.960Z,93.09
2022-10-23T07:29:42.039Z,92.64
2022-10-23T07:32:09.203Z,92.79
2022-10-23T07:34:54.409Z,92.42
2022-10-23T07:37:31.709Z,91.73
2022-10-23T07:40:16.958Z,91.07
2022-10-23T07:42:44.565Z,90.95
2022-10-23T07:45:12.511Z,90.44
2022-10-23T07:47:53.490Z,89.91
2022-10-23T07:50:24.333Z,89.72
2022-10-23T07:52:51.804Z,89.49
2022-10-23T07:55:22.752Z,88.56
2022-10-23T07:58:03.422Z,88.02
2022-10-23T08:01:01.600Z,88.64
2022-10-23T08:03:35.284Z,89.25
2022-10-23T08:06:03.149Z,88.68
2022-10-23T08:08:34.036Z,87.36
2022-10-23T08:11:06.243Z,86.63
2022-10-23T08:13:47.220Z,87.13
2022-10-23T08:16:14.144Z,86.67
2022-10-23T08:19:06.155Z,85.10
2022-10-23T08:26:27.926Z,85.82
2022-10-23T08:28:58.498Z,84.89
2022-10-23T08:31:26.568Z,84.27
2022-10-23T08:34:09.769Z,82.99
2022-10-23T08:36:39.268Z,82.96
2022-10-23T08:39:09.484Z,82.36
2022-10-23T08:41:47.652Z,81.32
2022-10-23T08:44:22.554Z,81.57
2022-10-23T08:47:01.965Z,82.47
2022-10-23T08:49:59.242Z,80.76
2022-10-23T08:52:45.274Z,79.83
2022-10-23T08:55:40.077Z,79.68
2022-10-23T08:58:35.093Z,78.25
2022-10-23T09:01:10.567Z,78.21
2022-10-23T09:03:40.476Z,78.07
2022-10-23T09:06:29.542Z,80.04
2022-10-23T09:09:56.193Z,79.93
2022-10-23T09:12:26.120Z,79.80
2022-10-23T09:15:19.114Z,79.33
2022-10-23T09:17:55.599Z,79.09
2022-10-23T09:20:47.988Z,79.91
2022-10-23T09:23:29.625Z,79.09
2022-10-23T09:25:58.811Z,79.30
2022-10-23T09:28:47.937Z,78.66
2022-10-23T09:31:19.900Z,77.92
2022-10-23T09:33:57.976Z,77.80
2022-10-23T09:36:32.660Z,77.10
2022-10-23T09:41:57.179Z,77.32
2022-10-23T09:44:36.323Z,76.78
2022-10-23T09:47:11.728Z,76.33
2022-10-23T09:52:50.201Z,75.35
2022-10-23T09:55:44.796Z,75.61
2022-10-23T09:58:59.127Z,76.12
2022-10-23T10:01:40.325Z,75.26
2022-10-23T10:04:38.883Z,76.02
2022-10-23T10:07:30.276Z,75.42
2022-10-23T10:09:59.542Z,75.99
2022-10-23T10:16:20.771Z,75.65
2022-10-23T10:19:11.641Z,76.20
2022-10-23T10:21:57.143Z,76.09
2022-10-23T10:24:34.419Z,75.90
2022-10-23T10:27:11.411Z,75.24
2022-10-23T10:30:07.308Z,74.89
2022-10-23T10:32:59.141Z,74.94
2022-10-23T10:35:43.309Z,74.89
2022-10-23T10:38:19.053Z,74.28
2022-10-23T10:40:59.113Z,74.23
2022-10-23T10:43:35.336Z,74.77
2022-10-23T10:46:23.919Z,74.83
2022-10-23T10:48:54.550Z,73.81
2022-10-23T10:51:54.138Z,76.22
2022-10-23T10:54:37.100Z,75.14
2022-10-23T10:57:42.725Z,74.36
2022-10-23T11:00:34.226Z,73.76
2022-10-23T11:07:52.070Z,73.62
2022-10-23T11:10:24.835Z,73.51
2022-10-23T11:13:58.095Z,72.70
2022-10-23T11:16:26.567Z,72.10
2022-10-23T11:19:14.167Z,71.83
2022-10-23T11:21:55.000Z,71.86
2022-10-23T11:25:04.990Z,71.79
2022-10-23T11:28:12.852Z,71.70
2022-10-23T11:31:58.154Z,71.82
2022-10-23T11:50:10.490Z,70.13
2022-10-23T11:50:12.613Z,70.40
2022-10-23T12:02:00.202Z,71.71
2022-10-23T12:04:49.360Z,70.94
2022-10-23T12:07:24.842Z,70.61
2022-10-23T12:10:05.642Z,70.24
2022-10-23T12:12:43.218Z,69.86
2022-10-23T12:15:15.924Z,69.54
2022-10-23T12:17:43.875Z,69.06
2022-10-23T12:20:11.232Z,68.81
2022-10-23T12:22:47.391Z,68.70
2022-10-23T12:25:35.751Z,69.40
2022-10-23T12:28:41.666Z,68.91
2022-10-23T12:31:26.542Z,68.86
2022-10-23T12:33:53.348Z,69.18
2022-10-23T12:36:37.823Z,69.11
2022-10-23T12:39:27.503Z,69.08
2022-10-23T12:41:57.338Z,68.67
2022-10-23T12:44:25.364Z,67.92
2022-10-23T12:47:00.137Z,69.09
2022-10-23T12:49:45.558Z,69.20
2022-10-23T12:52:19.988Z,68.23
2022-10-23T12:54:47.889Z,67.91
2022-10-23T12:57:21.188Z,68.67
2022-10-23T12:59:48.865Z,68.30
2022-10-23T13:02:25.384Z,68.37
2022-10-23T13:04:54.837Z,68.57
2022-10-23T13:07:32.285Z,69.34
2022-10-23T13:10:05.035Z,68.77
2022-10-23T13:12:36.796Z,68.64
2022-10-23T13:15:06.803Z,68.72
2022-10-23T13:17:49.265Z,68.24
2022-10-23T13:20:22.403Z,69.11
2022-10-23T13:22:57.734Z,70.40
2022-10-23T13:25:30.754Z,70.12
2022-10-23T13:28:23.937Z,70.76
2022-10-23T13:31:07.477Z,70.68
2022-10-23T13:33:48.671Z,70.47
2022-10-23T13:36:16.958Z,70.47
2022-10-23T13:38:48.384Z,71.00
2022-10-23T13:41:20.222Z,71.29
2022-10-23T13:43:48.230Z,71.65
2022-10-23T13:46:24.607Z,72.14
2022-10-23T13:48:52.054Z,72.25
2022-10-23T13:51:31.505Z,72.19
2022-10-23T13:53:58.416Z,71.64
2022-10-23T13:56:28.865Z,71.96
2022-10-23T13:58:56.679Z,71.87
2022-10-23T14:01:28.539Z,71.82
2022-10-23T14:03:57.113Z,71.81
2022-10-23T14:06:23.889Z,71.07
2022-10-23T14:08:51.395Z,71.59
2022-10-23T14:11:19.581Z,71.87
2022-10-23T14:13:47.903Z,72.43
2022-10-23T14:16:16.785Z,71.86
2022-10-23T14:18:44.644Z,72.72
2022-10-23T14:21:13.219Z,73.12
2022-10-23T14:23:40.201Z,73.28
2022-10-23T14:26:09.625Z,72.87
2022-10-23T14:28:36.418Z,73.08
2022-10-23T14:31:12.653Z,73.28
2022-10-23T14:33:39.667Z,73.29
2022-10-23T14:36:09.667Z,72.35
2022-10-23T14:38:37.112Z,72.51
2022-10-23T14:41:06.855Z,72.72
2022-10-23T14:43:33.472Z,73.01
2022-10-23T14:46:08.848Z,72.41
2022-10-23T14:48:37.704Z,73.35
2022-10-23T14:51:07.714Z,73.82
2022-10-23T14:53:37.420Z,73.81
2022-10-23T14:56:05.034Z,74.00
2022-10-23T14:58:31.790Z,74.92
2022-10-23T15:01:05.501Z,74.72
2022-10-23T15:03:32.916Z,75.13
2022-10-23T15:05:59.538Z,74.79
2022-10-23T15:08:26.170Z,75.09
2022-10-23T15:10:53.071Z,76.04
2022-10-23T15:13:19.773Z,75.97
2022-10-23T15:15:46.570Z,76.12
2022-10-23T15:18:13.452Z,76.58
2022-10-23T15:20:40.198Z,77.16
2022-10-23T15:23:07.233Z,77.70
2022-10-23T15:25:33.979Z,78.22
2022-10-23T15:28:00.545Z,78.60
2022-10-23T15:30:27.466Z,78.75
2022-10-23T15:32:54.203Z,79.30
2022-10-23T15:35:20.965Z,79.56
2022-10-23T15:37:47.788Z,80.19
2022-10-23T15:40:14.344Z,80.30
2022-10-23T15:42:41.149Z,81.45
2022-10-23T15:45:10.195Z,80.90
2022-10-23T15:47:36.724Z,81.93
2022-10-23T15:50:04.015Z,83.51
2022-10-23T15:52:30.621Z,86.17
2022-10-23T15:54:57.416Z,87.74
2022-10-23T15:57:24.055Z,87.83
2022-10-23T15:59:51.172Z,88.65
2022-10-23T16:02:18.241Z,89.04
2022-10-23T16:04:45.011Z,88.82
2022-10-23T16:07:11.711Z,89.67
2022-10-23T16:09:38.381Z,89.91
2022-10-23T16:12:05.445Z,90.27
2022-10-23T16:14:32.183Z,90.65
2022-10-23T16:16:58.848Z,90.62
2022-10-23T16:19:28.669Z,91.19
2022-10-23T16:21:55.391Z,91.23
2022-10-23T16:24:22.129Z,91.00
2022-10-23T16:26:53.166Z,91.14
2022-10-23T16:29:27.104Z,90.99
2022-10-23T16:39:21.393Z,95.25
2022-10-23T16:42:08.056Z,95.09
2022-10-23T16:44:57.931Z,94.26
2022-10-23T16:47:41.214Z,93.82
2022-10-23T16:50:22.834Z,94.39
2022-10-23T16:52:52.012Z,94.75
2022-10-23T16:56:09.354Z,95.61
2022-10-23T16:58:42.556Z,95.97
2022-10-23T17:01:19.511Z,96.46
2022-10-23T17:03:52.370Z,97.31
2022-10-23T17:07:27.360Z,97.49
2022-10-23T17:10:32.982Z,97.56
2022-10-23T17:12:59.932Z,97.38
2022-10-23T17:15:51.493Z,97.73
2022-10-23T17:18:18.496Z,97.98
2022-10-23T17:20:52.275Z,98.87
2022-10-23T17:23:19.138Z,98.39
2022-10-23T17:48:19.040Z,100.00
2022-10-23T17:50:49.422Z,98.06
2022-10-23T17:53:18.075Z,98.17
2022-10-23T17:55:44.709Z,99.00
2022-10-23T17:58:11.665Z,99.87
2022-10-23T18:00:38.597Z,99.63
2022-10-23T18:03:05.402Z,98.92
2022-10-23T18:05:33.205Z,98.45
2022-10-23T18:08:00.116Z,98.93
2022-10-23T18:10:26.991Z,99.46
2022-10-23T18:12:53.899Z,100.00
2022-10-23T18:15:20.983Z,100.00
2022-10-23T18:17:47.798Z,99.84
2022-10-23T18:20:15.660Z,99.92
2022-10-23T18:22:43.527Z,99.64
2022-10-23T18:25:11.161Z,99.71
2022-10-23T18:27:39.717Z,99.79
2022-10-23T18:30:07.600Z,99.16
2022-10-23T18:32:34.448Z,99.30
2022-10-23T18:35:01.062Z,98.71
2022-10-23T18:37:31.803Z,99.12
2022-10-23T18:40:00.023Z,98.79
2022-10-23T18:42:26.840Z,98.19
2022-10-23T18:44:53.603Z,96.67
2022-10-23T18:47:20.247Z,97.08
2022-10-23T18:49:47.417Z,95.89
2022-10-23T18:52:14.156Z,96.34
2022-10-23T18:54:40.672Z,95.99
2022-10-23T18:57:07.584Z,95.94
2022-10-23T18:59:34.392Z,95.57
2022-10-23T19:02:01.150Z,95.37
2022-10-23T19:04:29.812Z,94.77
2022-10-23T19:06:57.190Z,94.57
2022-10-23T19:09:23.956Z,94.61
2022-10-23T19:11:50.751Z,93.44
2022-10-23T19:14:17.331Z,93.53
2022-10-23T19:16:55.089Z,93.54
2022-10-23T19:19:25.828Z,93.28
2022-10-23T19:21:56.381Z,93.13
2022-10-23T19:24:29.691Z,92.68
2022-10-23T19:26:57.659Z,92.28
2022-10-23T19:29:26.624Z,92.96
2022-10-23T19:31:53.928Z,92.51
2022-10-23T19:34:24.720Z,92.24
2022-10-23T19:36:53.095Z,92.01
2022-10-23T19:39:20.459Z,92.94
2022-10-23T19:41:47.373Z,91.22
2022-10-23T19:44:14.958Z,92.96
2022-10-23T19:46:41.799Z,89.40
2022-10-23T19:49:09.089Z,91.12
2022-10-23T19:51:36.490Z,91.17
2022-10-23T19:54:04.186Z,88.52
2022-10-23T19:56:32.958Z,89.49
2022-10-23T19:59:27.244Z,90.36
2022-10-23T20:07:25.434Z,90.45
2022-10-23T20:10:26.317Z,90.01
2022-10-23T20:13:42.296Z,91.36
2022-10-23T20:16:19.969Z,90.86
2022-10-23T20:18:47.860Z,91.14
2022-10-23T20:46:30.350Z,96.09
2022-10-23T20:50:43.783Z,95.66
2022-10-23T21:02:22.002Z,95.24
2022-10-23T21:15:36.974Z,95.60
2022-10-23T21:19:27.790Z,95.49
2022-10-23T21:22:11.717Z,96.96
2022-10-23T21:40:29.557Z,99.99
2022-10-23T22:11:06.592Z,98.46
2022-10-23T22:13:36.490Z,98.84
2022-10-23T22:16:05.953Z,99.51
2022-10-23T22:18:34.144Z,99.19
2022-10-23T22:21:15.396Z,99.25
2022-10-23T22:24:24.280Z,98.60
2022-10-23T22:26:56.058Z,97.87
2022-10-23T22:29:26.490Z,99.01
2022-10-23T22:31:53.941Z,99.04
2022-10-23T22:34:51.460Z,99.23
2022-10-23T22:37:15.847Z,98.12
2022-10-23T22:39:42.771Z,97.41
2022-10-23T22:42:13.097Z,97.25
2022-10-23T22:44:39.910Z,97.25
2022-10-23T22:47:07.060Z,97.32
2022-10-23T22:49:33.781Z,98.02
2022-10-23T22:52:05.328Z,97.70
2022-10-23T22:54:32.128Z,97.82
2022-10-23T22:56:58.845Z,97.95
2022-10-23T22:59:25.442Z,97.58
2022-10-23T23:01:52.075Z,97.25
2022-10-23T23:07:10.280Z,96.82
2022-10-23T23:09:42.190Z,97.49
2022-10-23T23:12:10.241Z,96.58
2022-10-23T23:14:37.075Z,96.65
2022-10-23T23:17:03.857Z,96.73
2022-10-23T23:19:30.558Z,96.89
2022-10-23T23:21:58.252Z,96.27
2022-10-23T23:24:25.878Z,96.50
2022-10-23T23:26:52.619Z,95.42
2022-10-23T23:29:19.192Z,96.06
2022-10-23T23:31:45.937Z,95.90
2022-10-23T23:34:12.474Z,95.24
2022-10-23T23:36:39.349Z,95.57
2022-10-23T23:39:05.953Z,95.84
2022-10-23T23:41:32.577Z,95.74
2022-10-23T23:43:59.387Z,95.74
2022-10-23T23:46:26.300Z,95.70
2022-10-23T23:48:52.901Z,96.33
2022-10-23T23:51:22.340Z,96.25
2022-10-23T23:53:49.700Z,96.06
2022-10-23T23:56:17.157Z,95.78
2022-10-23T23:58:44.259Z,94.78
